createdAt,value
2016-05-11T06:11:00.377Z,20.12
2016-05-11T06:11:10.158Z,20.11
2016-05-11T06:11:20.158Z,20.12
2016-05-11T06:11:30.158Z,20.1
2016-05-11T06:11:40.207Z,20.15
2016-05-11T06:11:50.175Z,20.17
2016-05-11T06:12:00.175Z,20.18
2016-05-11T06:12:10.191Z,20.11
2016-05-11T06:12:20.191Z,20.24
2016-05-11T06:12:30.191Z,20.19
2016-05-11T06:12:40.211Z,20.17
2016-05-11T06:12:50.211Z,20.22
2016-05-11T06:13:00.211Z,-39.49
2016-05-11T06:13:10.226Z,20.21
2016-05-11T06:13:20.226Z,-39.49
2016-05-11T06:13:30.258Z,-39.49
2016-05-11T06:13:40.244Z,-39.49
2016-05-11T06:13:59.072Z,-37.59
2016-05-11T06:14:09.056Z,-37.61
2016-05-11T06:14:19.056Z,-37.62
2016-05-11T06:14:29.072Z,-37.63
2016-05-11T06:14:39.138Z,-37.65
2016-05-11T06:14:49.106Z,-37.66
2016-05-11T06:14:59.091Z,-37.68
2016-05-11T06:15:09.091Z,-38.55
2016-05-11T06:15:19.247Z,-38.45
2016-05-11T06:15:29.106Z,-39.34
2016-05-11T06:15:39.108Z,-39.39
2016-05-11T06:15:49.108Z,-39.32
2016-05-11T06:15:59.358Z,-39.33
2016-05-11T06:16:09.124Z,-39.33
2016-05-11T06:16:19.155Z,-39.33
2016-05-11T06:16:29.140Z,-39.33
2016-05-11T06:16:39.143Z,-39.34
2016-05-11T06:16:49.143Z,-39.34
2016-05-11T06:16:59.174Z,-39.36
2016-05-11T06:17:09.143Z,-39.36
2016-05-11T06:17:19.158Z,-39.36
2016-05-11T06:17:29.189Z,125
2016-05-11T06:17:39.177Z,-39.67
2016-05-11T06:17:49.177Z,-39.66
2016-05-11T06:17:59.208Z,125
2016-05-11T06:18:09.192Z,-37.92
2016-05-11T06:18:19.505Z,-39.67
2016-05-11T06:18:29.192Z,-39.67
2016-05-11T06:18:39.194Z,-39.72
2016-05-11T06:18:49.241Z,125
2016-05-11T06:18:59.476Z,125
2016-05-11T06:19:23.319Z,21.29
2016-05-11T06:19:36.730Z,21.32
2016-05-11T06:19:48.198Z,21.35
2016-05-11T06:19:59.402Z,-39.55
2016-05-11T06:20:18.214Z,-38.23
2016-05-11T06:20:32.495Z,21.38
2016-05-11T06:20:46.449Z,21.47
2016-05-11T06:20:57.371Z,21.43
2016-05-11T06:21:07.434Z,-38.23
2016-05-11T06:21:24.653Z,-38.23
2016-05-11T06:21:45.734Z,21.51
2016-05-11T06:22:08.077Z,21.58
2016-05-11T06:22:16.859Z,21.58
2016-05-11T06:22:27.343Z,21.65
2016-05-11T06:22:42.613Z,21.63
2016-05-11T06:22:52.597Z,-38.23
2016-05-11T06:23:02.628Z,-38.23
2016-05-11T06:23:18.972Z,-38.23
2016-05-11T06:23:27.456Z,-38.23
2016-05-11T06:23:41.333Z,-38.23
2016-05-11T06:23:57.052Z,-38.23
2016-05-11T06:24:11.708Z,-38.23
2016-05-11T06:24:26.458Z,-38.23
2016-05-11T06:24:43.023Z,-38.23
2016-05-11T06:24:54.289Z,-38.23
2016-05-11T06:25:05.507Z,22.3
2016-05-11T06:25:13.585Z,-38.23
2016-05-11T06:25:24.367Z,-38.23
2016-05-11T06:25:34.445Z,22.33
2016-05-11T06:25:47.229Z,22.38
2016-05-11T06:25:57.385Z,22.41
2016-05-11T06:26:07.182Z,-38.23
2016-05-11T06:26:18.417Z,22.49
2016-05-11T06:26:27.198Z,-38.23
2016-05-11T06:26:37.201Z,-38.23
2016-05-11T06:26:52.998Z,-38.92
2016-05-11T06:27:21.670Z,-38.93
2016-05-11T06:28:32.501Z,-38.96
2016-05-11T06:28:39.754Z,-38.97
2016-05-11T06:28:49.972Z,-38.97
2016-05-11T06:28:59.769Z,-36.76
2016-05-11T06:29:09.769Z,-35.83
2016-05-11T06:29:19.769Z,-39.66
2016-05-11T06:29:29.785Z,-38.3
2016-05-11T06:29:39.787Z,-37.66
2016-05-11T06:29:49.803Z,-37.67
2016-05-11T06:29:59.803Z,-36.56
2016-05-11T06:30:09.803Z,-38.61
2016-05-11T06:30:19.881Z,23.36
2016-05-11T06:30:30.053Z,23.34
2016-05-11T06:30:39.821Z,23.34
2016-05-11T06:30:49.852Z,-36.97
2016-05-11T06:30:59.962Z,-36.97
2016-05-11T06:31:09.837Z,-36.98
2016-05-11T06:31:19.852Z,-36.99
2016-05-11T06:31:29.852Z,-36.99
2016-05-11T06:31:39.854Z,-36.99
2016-05-11T06:31:49.854Z,23.62
2016-05-11T06:31:59.870Z,23.74
2016-05-11T06:32:09.870Z,-37.2
2016-05-11T06:32:19.870Z,-37.22
2016-05-11T06:32:45.812Z,23.92
2016-05-11T06:32:55.812Z,23.86
2016-05-11T06:33:05.827Z,-37.04
2016-05-11T06:33:15.827Z,24.01
2016-05-11T06:33:25.858Z,-38.05
2016-05-11T06:33:35.843Z,-38.05
2016-05-11T06:33:45.845Z,-38.03
2016-05-11T06:33:55.845Z,-38.34
2016-05-11T06:34:05.845Z,-37.14
2016-05-11T06:34:15.860Z,-37.13
2016-05-11T06:34:25.860Z,-37.09
2016-05-11T06:34:35.860Z,-37.1
2016-05-11T06:34:45.879Z,-37.11
2016-05-11T06:34:55.879Z,-36.9
2016-05-11T06:35:05.895Z,-37.1
2016-05-11T06:35:15.895Z,-37.1
2016-05-11T06:35:25.895Z,-37.11
2016-05-11T06:35:35.895Z,-37.12
2016-05-11T06:35:45.913Z,-37.12
2016-05-11T06:35:55.913Z,-37.12
2016-05-11T06:36:05.913Z,-37.12
2016-05-11T06:36:15.929Z,-37.12
2016-05-11T06:36:25.929Z,-37.12
2016-05-11T06:36:35.929Z,-37.13
2016-05-11T06:36:45.931Z,-37.14
2016-05-11T06:56:58.422Z,125
2016-05-11T06:57:08.422Z,125
2016-05-11T06:57:18.438Z,125
2016-05-11T06:57:28.438Z,125
2016-05-11T06:57:38.438Z,125
2016-05-11T06:57:48.456Z,125
2016-05-11T06:57:58.456Z,124.67
2016-05-11T06:58:08.456Z,124.67
2016-05-11T06:58:32.331Z,-39.96
2016-05-11T06:58:42.334Z,-39.96
2016-05-11T06:59:18.381Z,-38.45
2016-05-11T06:59:28.334Z,-38.45
2016-05-11T06:59:38.349Z,-38.44
2016-05-11T06:59:48.352Z,-38.44
2016-05-11T06:59:58.352Z,-38.46
2016-05-11T07:00:08.368Z,-38.46
2016-05-11T07:00:18.368Z,-38.45
2016-05-11T07:00:28.759Z,-38.45
2016-05-11T07:00:38.477Z,-38.45
2016-05-11T07:00:48.387Z,-38.45
2016-05-11T07:00:58.387Z,-38.44
2016-05-11T07:01:08.887Z,-38.43
2016-05-11T07:01:18.840Z,-38.43
2016-05-11T07:01:28.840Z,-38.43
2016-05-11T07:01:38.858Z,-38.43
2016-05-11T07:01:48.858Z,-38.43
2016-05-11T07:01:58.858Z,-38.43
2016-05-11T07:02:08.858Z,-38.42
2016-05-11T07:06:16.071Z,-38.35
2016-05-11T07:06:26.071Z,-38.33
2016-05-11T08:01:08.594Z,25.49
2016-05-11T08:01:18.594Z,25.36
2016-05-11T08:01:28.610Z,25.31
2016-05-11T08:01:38.704Z,25.31
2016-05-11T08:01:48.613Z,25.29
2016-05-11T08:01:58.629Z,25.19
2016-05-11T08:02:08.629Z,25.11
2016-05-11T14:16:41.330Z,25.48
2016-05-11T14:16:51.330Z,25.46
2016-05-11T14:17:01.345Z,25.48
2016-05-11T14:17:11.347Z,25.55
2016-05-11T14:17:21.347Z,25.62
2016-05-11T14:17:31.363Z,25.63
2016-05-11T14:17:41.363Z,25.59
2016-05-11T14:17:51.363Z,25.63
2016-05-11T14:18:01.363Z,25.66
2016-05-11T14:18:11.381Z,25.63
2016-05-11T14:18:21.381Z,25.59
2016-05-11T14:18:31.381Z,25.63
2016-05-11T14:18:41.396Z,25.68
2016-05-11T14:18:51.396Z,25.62
2016-05-11T14:19:01.396Z,25.7
2016-05-11T14:19:11.415Z,25.63
2016-05-11T14:19:21.415Z,25.7
2016-05-11T14:19:31.415Z,25.58
2016-05-11T14:19:41.431Z,25.7
2016-05-11T14:19:51.431Z,25.73
2016-05-11T14:20:01.431Z,25.71
2016-05-11T14:20:11.449Z,25.7
2016-05-11T14:20:21.449Z,25.83
2016-05-11T14:20:31.449Z,25.89
2016-05-11T14:20:41.465Z,25.93
2016-05-11T14:20:51.465Z,25.99
2016-05-11T14:21:01.465Z,26.13
2016-05-11T14:21:11.468Z,26.22
2016-05-11T14:21:21.483Z,26.78
2016-05-11T14:21:31.483Z,26.71
2016-05-11T14:21:41.499Z,26.63
2016-05-11T14:21:51.499Z,26.68
2016-05-11T14:22:01.499Z,26.67
2016-05-11T14:22:11.502Z,26.68
2016-05-11T14:22:21.518Z,26.67
2016-05-11T14:22:31.518Z,26.68
2016-05-11T14:22:41.518Z,26.68
2016-05-11T14:22:51.533Z,26.7
2016-05-11T14:23:01.533Z,26.73
2016-05-11T14:23:11.567Z,26.71
2016-05-11T14:23:21.551Z,26.76
2016-05-11T14:23:31.551Z,26.74
2016-05-11T14:23:41.613Z,26.79
2016-05-11T14:23:51.551Z,26.78
2016-05-11T14:24:01.567Z,26.71
2016-05-11T14:24:11.570Z,26.91
2016-05-11T14:24:21.570Z,26.76
2016-05-11T14:24:31.585Z,26.88
2016-05-11T14:24:41.585Z,26.7
2016-05-11T14:24:51.601Z,26.78
2016-05-11T14:25:01.601Z,26.73
2016-05-11T14:25:11.603Z,26.76
2016-05-11T14:25:21.618Z,26.81
2016-05-11T14:25:31.618Z,26.78
2016-05-11T14:25:41.618Z,26.76
2016-05-11T14:25:51.618Z,26.68
2016-05-11T14:26:01.634Z,26.74
2016-05-11T14:26:11.637Z,26.7
2016-05-11T14:26:21.653Z,26.74
2016-05-11T14:26:31.653Z,26.78
2016-05-11T14:26:41.653Z,26.68
2016-05-11T14:26:51.668Z,26.74
2016-05-11T14:27:01.668Z,26.85
2016-05-11T14:27:11.671Z,26.93
2016-05-11T14:27:21.687Z,27.08
2016-05-11T14:27:31.687Z,27.22
2016-05-11T14:27:41.703Z,27.3
2016-05-11T14:27:51.687Z,27.37
2016-05-11T14:28:01.703Z,27.57
2016-05-11T14:28:11.706Z,27.58
2016-05-11T14:28:21.721Z,27.83
2016-05-11T14:28:31.721Z,27.86
2016-05-11T14:28:41.721Z,27.9
2016-05-11T14:28:51.737Z,28.03
2016-05-11T14:29:01.737Z,28.13
2016-05-11T14:29:11.739Z,28.25
2016-05-11T14:29:21.754Z,28.31
2016-05-11T14:29:31.754Z,28.46
2016-05-11T14:29:41.754Z,28.6
2016-05-11T14:29:51.770Z,28.65
2016-05-11T14:30:01.895Z,28.74
2016-05-11T14:30:11.773Z,28.89
2016-05-11T14:30:21.804Z,28.86
2016-05-11T14:30:31.789Z,28.86
2016-05-11T14:30:41.789Z,28.9
2016-05-11T14:30:51.804Z,28.87
2016-05-11T14:31:01.820Z,29.07
2016-05-11T14:31:11.807Z,29.13
2016-05-11T14:31:21.823Z,29.12
2016-05-11T14:31:31.823Z,29.18
2016-05-11T14:31:41.901Z,29.2
2016-05-11T14:31:51.839Z,29.24
2016-05-11T14:32:01.839Z,29.28
2016-05-11T14:32:11.856Z,29.25
2016-05-11T14:32:21.856Z,29.28
2016-05-11T14:32:31.856Z,29.31
2016-05-11T14:32:41.856Z,29.4
2016-05-11T14:32:51.872Z,29.44
2016-05-11T14:33:01.872Z,29.35
2016-05-11T14:33:11.891Z,29.44
2016-05-11T14:33:21.891Z,29.47
2016-05-11T14:33:31.891Z,29.4
2016-05-11T14:33:41.891Z,29.4
2016-05-11T14:33:51.907Z,29.53
2016-05-11T14:34:01.907Z,29.43
2016-05-11T14:34:11.925Z,29.47
2016-05-11T14:34:21.925Z,29.43
2016-05-11T14:34:31.940Z,29.55
2016-05-11T14:34:41.940Z,29.55
2016-05-11T14:34:51.940Z,29.52
2016-05-11T14:35:01.940Z,29.5
2016-05-11T14:35:11.958Z,29.43
2016-05-11T14:35:21.958Z,29.44
2016-05-11T14:35:31.974Z,29.42
2016-05-11T14:35:41.974Z,29.47
2016-05-11T14:35:51.974Z,29.44
2016-05-11T14:36:01.989Z,29.49
2016-05-11T14:36:12.008Z,29.43
2016-05-11T14:36:21.992Z,29.35
2016-05-11T14:36:32.008Z,29.4
2016-05-11T14:36:42.008Z,29.24
2016-05-11T14:36:52.023Z,29.35
2016-05-11T14:37:02.023Z,29.37
2016-05-11T14:37:12.026Z,29.39
2016-05-11T14:37:22.136Z,29.32
2016-05-11T14:37:32.042Z,29.3
2016-05-11T14:37:42.058Z,29.42
2016-05-11T14:37:52.058Z,29.44
2016-05-11T14:38:02.058Z,29.44
2016-05-11T14:38:12.060Z,29.4
2016-05-11T14:38:22.075Z,29.4
2016-05-11T14:38:32.075Z,29.39
2016-05-11T14:38:42.091Z,29.44
2016-05-11T14:38:52.091Z,29.44
2016-05-11T14:39:02.091Z,29.58
2016-05-11T14:39:12.111Z,29.49
2016-05-11T14:39:22.111Z,29.5
2016-05-11T14:39:32.126Z,29.58
2016-05-11T14:39:42.126Z,29.55
2016-05-11T14:39:52.126Z,29.57
2016-05-11T14:40:02.126Z,29.59
2016-05-11T14:40:12.145Z,29.62
2016-05-11T14:40:22.176Z,29.68
2016-05-11T14:40:32.160Z,29.73
2016-05-11T14:40:42.160Z,29.74
2016-05-11T14:40:52.160Z,29.8
2016-05-11T14:41:02.176Z,29.86
2016-05-11T14:41:12.177Z,30.02
2016-05-11T14:41:22.193Z,30.06
2016-05-11T14:41:32.193Z,30.06
2016-05-11T14:41:42.193Z,30.16
2016-05-11T14:41:52.193Z,30.29
2016-05-11T14:42:02.208Z,30.4
2016-05-11T14:42:12.211Z,30.48
2016-05-11T14:42:22.227Z,30.46
2016-05-11T14:42:32.227Z,30.39
2016-05-11T14:42:42.227Z,30.52
2016-05-11T14:42:52.243Z,30.39
2016-05-11T14:43:02.243Z,30.39
2016-05-11T14:43:12.246Z,30.46
2016-05-11T14:43:22.261Z,30.38
2016-05-11T14:43:32.261Z,30.44
2016-05-11T14:43:42.277Z,30.49
2016-05-11T14:43:52.277Z,30.58
2016-05-11T14:44:02.277Z,30.67
2016-05-11T14:44:12.280Z,30.77
2016-05-11T14:44:22.405Z,30.89
2016-05-11T14:44:32.311Z,30.99
2016-05-11T14:44:42.311Z,31.14
2016-05-11T14:44:52.311Z,31.23
2016-05-11T14:45:02.311Z,31.42
2016-05-11T14:45:12.344Z,31.5
2016-05-11T14:45:22.329Z,31.51
2016-05-11T14:45:32.344Z,31.63
2016-05-11T14:45:42.360Z,31.79
2016-05-11T14:45:52.344Z,32.04
2016-05-11T14:46:02.563Z,32
2016-05-11T14:46:12.363Z,32.26
2016-05-11T14:46:22.363Z,32.29
2016-05-11T14:46:32.504Z,32.38
2016-05-11T14:46:42.379Z,32.49
2016-05-11T14:46:52.379Z,32.56
2016-05-11T14:47:02.394Z,32.56
2016-05-11T14:47:12.397Z,32.61
2016-05-11T14:47:22.413Z,32.73
2016-05-11T14:47:32.413Z,32.57
2016-05-11T14:47:42.428Z,32.66
2016-05-11T14:47:52.428Z,32.76
2016-05-11T14:48:02.444Z,32.72
2016-05-11T14:48:12.447Z,32.66
2016-05-11T14:48:22.447Z,32.53
2016-05-11T14:48:32.447Z,32.54
2016-05-11T14:48:42.463Z,32.45
2016-05-11T14:48:52.463Z,32.41
2016-05-11T14:49:02.463Z,32.42
2016-05-11T14:49:12.480Z,32.46
2016-05-11T14:49:22.480Z,32.56
2016-05-11T14:49:32.496Z,32.57
2016-05-11T14:49:42.496Z,32.51
2016-05-11T14:49:52.496Z,32.67
2016-05-11T14:50:02.512Z,32.51
2016-05-11T14:50:12.515Z,32.57
2016-05-11T14:50:22.515Z,32.51
2016-05-11T14:50:32.530Z,32.42
2016-05-11T14:50:42.530Z,32.48
2016-05-11T14:50:52.546Z,32.51
2016-05-11T14:51:02.546Z,32.44
2016-05-11T14:51:12.548Z,32.34
2016-05-11T14:51:22.563Z,32.42
2016-05-11T14:51:32.563Z,32.3
2016-05-11T14:51:42.563Z,32.37
2016-05-11T14:51:52.579Z,32.3
2016-05-11T14:52:02.579Z,32.23
2016-05-11T14:52:12.598Z,32.22
2016-05-11T14:52:22.598Z,32.24
2016-05-11T14:52:32.598Z,32.04
2016-05-11T14:52:42.613Z,31.95
2016-05-11T14:52:52.629Z,31.86
2016-05-11T14:53:02.629Z,31.6
2016-05-11T14:53:12.632Z,31.64
2016-05-11T14:53:22.632Z,31.63
2016-05-11T14:53:32.632Z,31.66
2016-05-11T14:53:42.648Z,31.69
2016-05-11T14:53:52.648Z,31.6
2016-05-11T14:54:02.663Z,31.54
2016-05-11T14:54:12.666Z,31.51
2016-05-11T14:54:22.666Z,31.45
2016-05-11T14:54:32.682Z,31.5
2016-05-11T14:54:42.682Z,31.52
2016-05-11T14:54:52.697Z,31.47
2016-05-11T14:55:02.697Z,31.29
2016-05-11T14:55:12.699Z,31.39
2016-05-11T14:55:22.715Z,31.39
2016-05-11T14:55:32.715Z,31.51
2016-05-11T14:55:42.731Z,31.51
2016-05-11T14:55:52.731Z,31.66
2016-05-11T14:56:02.731Z,31.63
2016-05-11T14:56:12.749Z,31.72
2016-05-11T14:56:22.749Z,31.74
2016-05-11T14:56:32.765Z,31.74
2016-05-11T14:56:42.765Z,31.79
2016-05-11T14:56:52.765Z,31.74
2016-05-11T14:57:02.781Z,31.79
2016-05-11T14:57:12.784Z,31.72
2016-05-11T14:57:22.799Z,31.72
2016-05-11T14:57:32.799Z,31.64
2016-05-11T14:57:42.799Z,31.64
2016-05-11T14:57:52.799Z,31.64
2016-05-11T14:58:02.815Z,31.66
2016-05-11T14:58:12.818Z,31.64
2016-05-11T14:58:22.818Z,31.64
2016-05-11T14:58:32.833Z,31.63
2016-05-11T14:58:42.833Z,31.66
2016-05-11T14:58:52.849Z,31.64
2016-05-11T14:59:02.865Z,31.74
2016-05-11T14:59:12.851Z,31.7
2016-05-11T14:59:22.867Z,31.62
2016-05-11T14:59:32.882Z,31.74
2016-05-11T14:59:42.914Z,31.64
2016-05-11T14:59:52.882Z,31.62
2016-05-11T15:00:02.898Z,31.67
2016-05-11T15:00:12.901Z,31.69
2016-05-11T15:00:22.901Z,31.66
2016-05-11T15:00:32.917Z,31.67
2016-05-11T15:00:43.385Z,31.6
2016-05-11T15:00:52.917Z,31.62
2016-05-11T15:01:02.917Z,31.63
2016-05-11T15:01:12.935Z,31.48
2016-05-11T15:01:22.935Z,31.42
2016-05-11T15:01:32.951Z,31.33
2016-05-11T15:01:42.951Z,31.18
2016-05-11T15:01:52.982Z,31.14
2016-05-11T15:02:02.966Z,31.22
2016-05-11T15:02:12.968Z,31.02
2016-05-11T15:02:22.984Z,31.02
2016-05-11T15:02:32.984Z,30.81
2016-05-11T15:02:42.984Z,30.71
2016-05-11T15:02:53.000Z,30.69
2016-05-11T15:03:03.015Z,30.59
2016-05-11T15:03:13.018Z,30.48
2016-05-11T15:03:23.018Z,30.56
2016-05-11T15:03:33.018Z,30.4
2016-05-11T15:03:43.034Z,30.39
2016-05-11T15:03:53.034Z,30.36
2016-05-11T15:04:03.050Z,30.29
2016-05-11T15:04:13.052Z,30.24
2016-05-11T15:04:23.052Z,30.2
2016-05-11T15:04:33.067Z,30.27
2016-05-11T15:04:43.067Z,30.13
2016-05-11T15:04:53.067Z,30.16
2016-05-11T15:05:03.083Z,30.13
2016-05-11T15:05:13.087Z,30.13
2016-05-11T15:05:23.087Z,30.17
2016-05-11T15:05:33.102Z,30.14
2016-05-11T15:05:43.102Z,30.11
2016-05-11T15:05:53.118Z,30.05
2016-05-11T15:06:03.118Z,30.02
2016-05-11T15:06:13.136Z,30.02
2016-05-11T15:06:23.151Z,30.13
2016-05-11T15:06:33.136Z,29.99
2016-05-11T15:06:43.136Z,30.01
2016-05-11T15:06:53.151Z,30.06
2016-05-11T15:07:03.151Z,30.03
2016-05-11T15:07:13.263Z,29.96
2016-05-11T15:07:23.263Z,30.05
2016-05-11T15:07:33.263Z,30.01
2016-05-11T15:07:43.185Z,30.06
2016-05-11T15:07:53.185Z,30.05
2016-05-11T15:08:03.185Z,30.08
2016-05-11T15:08:13.203Z,29.96
2016-05-11T15:08:23.203Z,30.01
2016-05-11T15:08:33.203Z,29.9
2016-05-11T15:08:43.219Z,29.89
2016-05-11T15:08:53.234Z,29.83
2016-05-11T15:09:03.234Z,29.83
2016-05-11T15:09:13.237Z,29.8
2016-05-11T15:09:23.253Z,29.77
2016-05-11T15:09:33.347Z,29.84
2016-05-11T15:09:43.347Z,29.77
2016-05-11T15:09:53.300Z,29.69
2016-05-11T15:10:03.269Z,29.69
2016-05-11T15:10:13.490Z,29.69
2016-05-11T15:10:23.287Z,29.71
2016-05-11T15:10:33.287Z,29.83
2016-05-11T15:10:43.303Z,29.77
2016-05-11T15:10:53.303Z,29.74
2016-05-11T15:11:03.319Z,29.79
2016-05-11T15:11:13.321Z,29.76
2016-05-11T15:11:23.321Z,29.8
2016-05-11T15:11:33.367Z,29.84
2016-05-11T15:11:43.336Z,29.86
2016-05-11T15:11:53.336Z,29.86
2016-05-11T15:12:03.336Z,29.81
2016-05-11T15:12:13.355Z,29.84
2016-05-11T15:12:23.355Z,29.73
2016-05-11T15:12:33.355Z,29.69
2016-05-11T15:12:43.386Z,29.68
2016-05-11T15:12:53.683Z,29.59
2016-05-11T15:13:03.402Z,29.55
2016-05-11T15:13:13.389Z,29.55
2016-05-11T15:13:23.405Z,29.52
2016-05-11T15:13:33.405Z,29.49
2016-05-11T15:13:43.405Z,29.44
2016-05-11T15:13:53.420Z,29.44
2016-05-11T15:14:03.420Z,29.43
2016-05-11T15:14:13.422Z,29.4
2016-05-11T15:14:23.532Z,29.42
2016-05-11T15:14:33.438Z,29.28
2016-05-11T15:14:43.454Z,29.32
2016-05-11T15:14:53.454Z,29.25
2016-05-11T15:15:03.469Z,29.28
2016-05-11T15:15:13.457Z,29.25
2016-05-11T15:15:23.472Z,29.28
2016-05-11T15:15:33.472Z,29.24
2016-05-11T15:15:43.488Z,29.27
2016-05-11T15:15:53.488Z,29.25
2016-05-11T15:16:03.503Z,29.12
2016-05-11T15:16:13.506Z,29.13
2016-05-11T15:16:23.506Z,29.1
2016-05-11T15:16:33.522Z,29.12
2016-05-11T15:16:43.522Z,29.06
2016-05-11T15:16:53.522Z,29.03
2016-05-11T15:17:03.538Z,28.86
2016-05-11T15:17:13.650Z,28.93
2016-05-11T15:17:23.619Z,28.83
2016-05-11T15:17:33.556Z,28.9
2016-05-11T15:17:43.556Z,28.83
2016-05-11T15:17:53.556Z,28.82
2016-05-11T15:18:03.572Z,28.77
2016-05-11T15:18:13.574Z,28.67
2016-05-11T15:18:23.590Z,28.75
2016-05-11T15:18:33.590Z,28.75
2016-05-11T15:18:43.605Z,28.75
2016-05-11T15:18:53.605Z,28.78
2016-05-11T15:19:03.605Z,28.64
2016-05-11T15:19:13.624Z,28.77
2016-05-11T15:19:23.624Z,28.71
2016-05-11T15:19:33.624Z,28.74
2016-05-11T15:19:43.639Z,28.62
2016-05-11T15:19:53.639Z,28.59
2016-05-11T15:20:03.655Z,28.62
2016-05-11T15:20:13.658Z,28.45
2016-05-11T15:20:23.767Z,28.46
2016-05-11T15:20:33.674Z,28.52
2016-05-11T15:20:43.674Z,28.5
2016-05-11T15:20:53.674Z,28.52
2016-05-11T15:21:03.689Z,28.45
2016-05-11T15:21:13.692Z,28.46
2016-05-11T15:21:23.708Z,28.57
2016-05-11T15:21:33.708Z,28.65
2016-05-11T15:21:43.708Z,28.6
2016-05-11T15:21:53.724Z,28.68
2016-05-11T15:22:03.739Z,28.64
2016-05-11T15:22:13.726Z,28.59
2016-05-11T15:22:23.741Z,28.6
2016-05-11T15:22:33.741Z,28.59
2016-05-11T15:22:43.741Z,28.65
2016-05-11T15:22:53.757Z,28.62
2016-05-11T15:23:03.757Z,28.62
2016-05-11T15:23:13.759Z,28.64
2016-05-11T15:23:23.774Z,28.62
2016-05-11T15:23:33.790Z,28.64
2016-05-11T15:23:43.790Z,28.55
2016-05-11T15:23:53.790Z,28.53
2016-05-11T15:24:03.790Z,28.6
2016-05-11T15:24:13.809Z,28.57
2016-05-11T15:24:23.809Z,28.65
2016-05-11T15:24:33.809Z,28.65
2016-05-11T15:24:43.824Z,28.65
2016-05-11T15:24:53.840Z,28.8
2016-05-11T15:25:03.840Z,28.72
2016-05-11T15:25:13.843Z,28.78
2016-05-11T15:25:23.859Z,28.87
2016-05-11T15:25:33.859Z,28.92
2016-05-11T15:25:43.859Z,28.92
2016-05-11T15:25:53.874Z,28.97
2016-05-11T15:26:03.874Z,28.96
2016-05-11T15:26:13.877Z,29.03
2016-05-11T15:26:23.893Z,29.06
2016-05-11T15:26:33.893Z,29.12
2016-05-11T15:26:43.893Z,29.13
2016-05-11T15:26:53.908Z,29.13
2016-05-11T15:27:03.908Z,29.15
2016-05-11T15:27:13.927Z,29.1
2016-05-11T15:27:23.943Z,29.18
2016-05-11T15:27:33.927Z,29.27
2016-05-11T15:27:43.927Z,29.25
2016-05-11T15:27:53.943Z,29.22
2016-05-11T15:28:03.958Z,29.31
2016-05-11T15:28:13.960Z,29.25
2016-05-11T15:28:23.960Z,29.3
2016-05-11T15:28:33.960Z,29.18
2016-05-11T15:28:43.976Z,29.24
2016-05-11T15:28:53.976Z,29.25
2016-05-11T15:29:03.976Z,29.3
2016-05-11T15:29:13.995Z,29.31
2016-05-11T15:29:24.010Z,29.31
2016-05-11T15:29:34.010Z,29.28
2016-05-11T15:29:44.010Z,29.31
2016-05-11T15:29:54.010Z,29.4
2016-05-11T15:30:04.026Z,29.31
2016-05-11T15:30:14.028Z,29.27
2016-05-11T15:30:24.043Z,29.24
2016-05-11T15:30:34.043Z,29.18
2016-05-11T15:30:44.059Z,29.12
2016-05-11T15:30:54.059Z,29.12
2016-05-11T15:31:04.059Z,28.96
2016-05-11T15:31:14.063Z,28.89
2016-05-11T15:31:24.297Z,28.93
2016-05-11T15:31:34.094Z,28.82
2016-05-11T15:31:44.110Z,28.8
2016-05-11T15:31:54.094Z,28.71
2016-05-11T15:32:04.094Z,28.64
2016-05-11T15:32:14.112Z,28.78
2016-05-11T15:32:24.112Z,28.77
2016-05-11T15:32:34.112Z,28.74
2016-05-11T15:32:44.128Z,28.74
2016-05-11T15:32:54.143Z,28.57
2016-05-11T15:33:04.128Z,28.7
2016-05-11T15:33:14.145Z,28.64
2016-05-11T15:33:24.145Z,28.65
2016-05-11T15:33:34.161Z,28.47
2016-05-11T15:33:44.161Z,28.46
2016-05-11T15:33:54.176Z,28.49
2016-05-11T15:34:04.176Z,28.46
2016-05-11T15:34:14.179Z,28.49
2016-05-11T15:34:24.179Z,28.43
2016-05-11T15:34:34.195Z,28.41
2016-05-11T15:34:44.195Z,28.31
2016-05-11T15:34:54.211Z,28.41
2016-05-11T15:35:04.211Z,28.33
2016-05-11T15:35:14.214Z,28.34
2016-05-11T15:35:24.229Z,28.41
2016-05-11T15:35:34.229Z,28.34
2016-05-11T15:35:44.229Z,28.38
2016-05-11T15:35:54.245Z,28.37
2016-05-11T15:36:04.245Z,28.38
2016-05-11T15:36:14.264Z,28.41
2016-05-11T15:36:24.264Z,28.46
2016-05-11T15:36:34.264Z,28.49
2016-05-11T15:36:44.279Z,28.52
2016-05-11T15:36:54.279Z,28.59
2016-05-11T15:37:04.279Z,28.64
2016-05-11T15:37:14.298Z,28.57
2016-05-11T15:37:24.298Z,28.6
2016-05-11T15:37:34.313Z,28.78
2016-05-11T15:37:44.313Z,28.68
2016-05-11T15:37:54.313Z,28.78
2016-05-11T15:38:04.329Z,28.94
2016-05-11T15:38:14.347Z,28.9
2016-05-11T15:38:24.331Z,29.02
2016-05-11T15:38:34.347Z,28.94
2016-05-11T15:38:44.347Z,29.03
2016-05-11T15:38:54.362Z,29.09
2016-05-11T15:39:04.362Z,29.16
2016-05-11T15:39:14.364Z,29.21
2016-05-11T15:39:24.380Z,29.3
2016-05-11T15:39:34.380Z,29.27
2016-05-11T15:39:44.396Z,29.31
2016-05-11T15:39:54.396Z,29.39
2016-05-11T15:40:04.396Z,29.39
2016-05-11T15:40:14.414Z,29.49
2016-05-11T15:40:24.414Z,29.49
2016-05-11T15:40:34.414Z,29.62
2016-05-11T15:40:44.430Z,29.62
2016-05-11T15:40:54.430Z,29.65
2016-05-11T15:41:04.430Z,29.68
2016-05-11T15:41:14.449Z,29.69
2016-05-11T15:41:24.449Z,29.81
2016-05-11T15:41:34.449Z,29.9
2016-05-11T15:41:44.465Z,29.8
2016-05-11T15:41:54.465Z,29.86
2016-05-11T15:42:04.481Z,29.83
2016-05-11T15:42:14.483Z,29.81
2016-05-11T15:42:24.483Z,29.84
2016-05-11T15:42:34.498Z,29.81
2016-05-11T15:42:44.498Z,29.81
2016-05-11T15:42:54.498Z,29.81
2016-05-11T15:43:04.514Z,29.8
2016-05-11T15:43:14.516Z,29.83
2016-05-11T15:43:24.516Z,29.8
2016-05-11T15:43:34.532Z,29.74
2016-05-11T15:43:44.547Z,29.81
2016-05-11T15:43:54.547Z,29.68
2016-05-11T15:44:04.547Z,29.57
2016-05-11T15:44:14.566Z,29.49
2016-05-11T15:44:24.566Z,29.39
2016-05-11T15:44:34.566Z,29.37
2016-05-11T15:44:44.566Z,29.34
2016-05-11T15:44:54.581Z,29.3
2016-05-11T15:45:04.597Z,29.16
2016-05-11T15:45:14.600Z,29.12
2016-05-11T15:45:24.600Z,29.12
2016-05-11T15:45:34.616Z,29.09
2016-05-11T15:45:44.616Z,29.03
2016-05-11T15:45:55.022Z,28.97
2016-05-11T15:46:04.616Z,28.94
2016-05-11T15:46:14.853Z,28.93
2016-05-11T15:46:24.634Z,29
2016-05-11T15:46:34.650Z,28.92
2016-05-11T15:46:44.666Z,28.9
2016-05-11T15:46:54.650Z,28.92
2016-05-11T15:47:04.666Z,29.03
2016-05-11T15:47:14.668Z,28.94
2016-05-11T15:47:24.683Z,28.96
2016-05-11T15:47:34.683Z,28.93
2016-05-11T15:47:44.683Z,28.9
2016-05-11T15:47:54.793Z,28.9
2016-05-11T15:48:04.699Z,28.92
2016-05-11T15:48:14.702Z,28.83
2016-05-11T15:48:24.717Z,28.83
2016-05-11T15:48:34.717Z,28.75
2016-05-11T15:48:44.733Z,28.72
2016-05-11T15:48:54.733Z,28.77
2016-05-11T15:49:04.733Z,28.75
2016-05-11T15:49:14.752Z,28.59
2016-05-11T15:49:24.752Z,28.64
2016-05-11T15:49:34.752Z,28.62
2016-05-11T15:49:44.752Z,28.65
2016-05-11T15:49:54.767Z,28.62
2016-05-11T15:50:04.767Z,28.52
2016-05-11T15:50:14.785Z,28.45
2016-05-11T15:50:24.785Z,28.4
2016-05-11T15:50:34.801Z,28.38
2016-05-11T15:50:44.801Z,28.31
2016-05-11T15:50:54.801Z,28.28
2016-05-11T15:51:04.816Z,28.31
2016-05-11T15:51:14.835Z,28.28
2016-05-11T15:51:24.819Z,28.27
2016-05-11T15:51:34.835Z,28.25
2016-05-11T15:51:44.850Z,28.25
2016-05-11T15:51:54.835Z,28.27
2016-05-11T15:52:04.850Z,28.31
2016-05-11T15:52:14.853Z,28.27
2016-05-11T15:52:24.869Z,28.33
2016-05-11T15:52:34.869Z,28.31
2016-05-11T15:52:44.869Z,28.34
2016-05-11T15:52:54.885Z,28.33
2016-05-11T15:53:04.885Z,28.31
2016-05-11T15:53:14.888Z,28.3
2016-05-11T15:53:24.903Z,28.34
2016-05-11T15:53:34.903Z,28.3
2016-05-11T15:53:44.919Z,28.22
2016-05-11T15:53:54.919Z,28.31
2016-05-11T15:54:04.919Z,28.31
2016-05-11T15:54:14.937Z,28.31
2016-05-11T15:54:24.937Z,28.3
2016-05-11T15:54:34.937Z,28.33
2016-05-11T15:54:44.952Z,28.31
2016-05-11T15:54:54.952Z,28.31
2016-05-11T15:55:04.952Z,28.33
2016-05-11T15:55:14.971Z,28.37
2016-05-11T15:55:24.971Z,28.35
2016-05-11T15:55:34.986Z,28.38
2016-05-11T15:55:45.002Z,28.45
2016-05-11T15:55:54.986Z,28.49
2016-05-11T15:56:04.986Z,28.55
2016-05-11T15:56:15.021Z,28.64
2016-05-11T15:56:25.021Z,28.65
2016-05-11T15:56:35.021Z,28.67
2016-05-11T15:56:45.036Z,28.6
2016-05-11T15:56:55.021Z,28.78